logo
Search for airport 
image banner adimage banner adimage banner ad
image banner ad

LKHART - Slezska Harta

Located in Bruntál, Czech Republic

ICAO - , IATA -

Data provided by Airmate  

General information

Coordinates: N49°54'32" E17°32'9"
Elevation is 1677 feet MSL.
 
View others Airports in Moravian-Silesian Region

Operational data

Special qualification required
Current time UTC:
Current local time:
Weather at : LKMT - Ostrava/Mosnov ( 48 km )
METAR: LKMT 282100Z 02008KT 9999 FEW016 15/12 Q1018 TEMPO BKN015
TAF: TAF LKMT 281700Z 2818/2918 02006KT CAVOK TEMPO 2818/2820 4000 TSRA SCT040CB BECMG 2821/2823 9999 BKN017 TEMPO 2823/2908 BKN010 BECMG 2909/2911 BKN030 PROB40 TEMPO 2912/2918 4000 TSRA SCT030CB
View NOTAMs / SUP AIP / TFR affecting this airport [VIEW]
Communications frequencies: [VIEW]

Runways:

RWY identifierQFULength (ft)Width (ft)SurfaceLDA (ft)
12124°147649GRASS1476
30304°147649GRASS1476

Airport contact information

Address: Bruntál Czech Republic

Satellite view of LKHART